Time;durP1;ratioP1;P1;durP2;ratioP2;P2;SDS_P1;SDS_P2;PMS_P1;PMS_P2;Temp;Humidity;BMP_temperature;BMP_pressure;BME280_temperature;BME280_humidity;BME280_pressure;Samples;Min_cycle;Max_cycle;Signal;HPM_P1;HPM_P2
2023/02/06 00:00:22;;;;;;;1.50;1.30;;;;;;;;;;5069077;28;20108;-50
2023/02/06 00:02:49;;;;;;;1.40;1.00;;;;;;;;;;5058412;28;20377;-50
2023/02/06 00:05:15;;;;;;;1.98;1.40;;;;;;;;;;5069139;28;20048;-47
2023/02/06 00:07:41;;;;;;;1.70;1.40;;;;;;;;;;5069778;28;20049;-48
2023/02/06 00:10:08;;;;;;;2.42;1.48;;;;;;;;;;5066812;28;20028;-47
2023/02/06 00:12:34;;;;;;;1.67;1.38;;;;;;;;;;5068289;28;20094;-46
2023/02/06 00:15:00;;;;;;;1.83;1.33;;;;;;;;;;5071760;28;20029;-46
2023/02/06 00:17:26;;;;;;;2.25;1.80;;;;;;;;;;5070345;28;20862;-46
2023/02/06 00:19:52;;;;;;;1.42;1.20;;;;;;;;;;5061265;28;20060;-47
2023/02/06 00:22:18;;;;;;;1.48;1.00;;;;;;;;;;5071121;28;20463;-47
2023/02/06 00:24:44;;;;;;;2.25;1.67;;;;;;;;;;5071721;28;20023;-46
2023/02/06 00:27:10;;;;;;;2.20;1.63;;;;;;;;;;5072930;28;20021;-46
2023/02/06 00:29:36;;;;;;;3.30;1.60;;;;;;;;;;5073759;28;20037;-48
2023/02/06 00:32:02;;;;;;;3.42;1.58;;;;;;;;;;5071242;28;20423;-47
2023/02/06 00:34:28;;;;;;;1.70;1.58;;;;;;;;;;5068956;28;20086;-45
2023/02/06 00:36:54;;;;;;;1.83;1.52;;;;;;;;;;5072909;28;20055;-48
2023/02/06 00:39:20;;;;;;;2.13;1.92;;;;;;;;;;5072403;28;20028;-48
2023/02/06 00:41:46;;;;;;;2.30;1.77;;;;;;;;;;5072110;28;20019;-47
2023/02/06 00:44:12;;;;;;;2.60;1.90;;;;;;;;;;5070637;28;20060;-46
2023/02/06 00:46:38;;;;;;;2.22;1.83;;;;;;;;;;5072483;28;20027;-49
2023/02/06 00:49:04;;;;;;;4.00;1.85;;;;;;;;;;5072527;28;20385;-44
2023/02/06 00:51:30;;;;;;;7.28;1.88;;;;;;;;;;5072961;28;20032;-46
2023/02/06 00:53:56;;;;;;;2.00;1.70;;;;;;;;;;5052162;28;20055;-47
2023/02/06 00:56:22;;;;;;;1.90;1.63;;;;;;;;;;5072677;28;20029;-49
2023/02/06 00:58:48;;;;;;;2.20;1.58;;;;;;;;;;5072894;28;20370;-45
2023/02/06 01:01:14;;;;;;;2.67;1.50;;;;;;;;;;5071282;28;20035;-48
2023/02/06 01:03:40;;;;;;;2.08;1.70;;;;;;;;;;5072527;28;20178;-49
2023/02/06 01:06:06;;;;;;;2.17;1.70;;;;;;;;;;5072438;28;20402;-46
2023/02/06 01:08:32;;;;;;;2.20;1.63;;;;;;;;;;5072887;28;20020;-48
2023/02/06 01:10:58;;;;;;;2.30;1.80;;;;;;;;;;5073097;28;20035;-48
2023/02/06 01:13:24;;;;;;;3.20;2.10;;;;;;;;;;5069449;28;20100;-49
2023/02/06 01:15:50;;;;;;;5.03;2.08;;;;;;;;;;5072569;28;20485;-48
2023/02/06 01:18:16;;;;;;;2.97;2.17;;;;;;;;;;5070434;28;20105;-46
2023/02/06 01:20:42;;;;;;;2.28;2.08;;;;;;;;;;5075237;28;20029;-48
2023/02/06 01:23:08;;;;;;;3.05;2.17;;;;;;;;;;5071236;28;20043;-45
2023/02/06 01:25:34;;;;;;;1.92;1.73;;;;;;;;;;5071915;28;20563;-48
2023/02/06 01:28:00;;;;;;;2.78;1.92;;;;;;;;;;5072690;28;20024;-47
2023/02/06 01:30:26;;;;;;;2.28;2.03;;;;;;;;;;5063061;28;20020;-48
2023/02/06 01:32:52;;;;;;;2.60;2.00;;;;;;;;;;5071550;28;20078;-45
2023/02/06 01:35:18;;;;;;;3.15;2.15;;;;;;;;;;5071354;28;20024;-47
2023/02/06 01:37:44;;;;;;;2.38;2.13;;;;;;;;;;5073344;28;20465;-49
2023/02/06 01:40:12;;;;;;;2.95;2.25;;;;;;;;;;5071992;28;20029;-48
2023/02/06 01:42:39;;;;;;;2.78;2.05;;;;;;;;;;5074179;28;20029;-46
2023/02/06 01:45:23;;;;;;;2.97;2.20;;;;;;;;;;5064759;28;20210;-45
2023/02/06 01:47:51;;;;;;;3.83;2.42;;;;;;;;;;5073513;28;20021;-46
2023/02/06 01:50:17;;;;;;;3.05;2.05;;;;;;;;;;5064418;28;20102;-46
2023/02/06 01:52:43;;;;;;;2.53;1.90;;;;;;;;;;5071424;28;20021;-47
2023/02/06 01:55:09;;;;;;;2.70;2.10;;;;;;;;;;5071647;28;20020;-46
2023/02/06 01:57:35;;;;;;;3.15;2.28;;;;;;;;;;5073392;28;20044;-50
2023/02/06 02:00:04;;;;;;;3.13;2.25;;;;;;;;;;5073194;28;20037;-46
2023/02/06 02:02:31;;;;;;;3.05;2.20;;;;;;;;;;5065080;28;20117;-46
2023/02/06 02:04:58;;;;;;;4.43;2.85;;;;;;;;;;5063125;28;20029;-47
2023/02/06 02:07:31;;;;;;;2.83;2.28;;;;;;;;;;5070543;28;20056;-47
2023/02/06 02:09:57;;;;;;;2.80;2.17;;;;;;;;;;5072948;28;20393;-46
2023/02/06 02:12:23;;;;;;;3.83;2.28;;;;;;;;;;5070555;28;20032;-46
2023/02/06 02:14:51;;;;;;;2.13;1.90;;;;;;;;;;5072975;28;20370;-46
2023/02/06 02:17:20;;;;;;;2.63;1.98;;;;;;;;;;5066756;28;20075;-45
2023/02/06 02:19:46;;;;;;;3.22;2.08;;;;;;;;;;5059039;28;20032;-45
2023/02/06 02:22:23;;;;;;;2.67;2.00;;;;;;;;;;5072706;28;20021;-45
2023/02/06 02:25:19;;;;;;;3.17;2.17;;;;;;;;;;5064571;28;20025;-46
2023/02/06 02:27:57;;;;;;;3.17;2.03;;;;;;;;;;5055327;28;20064;-45
2023/02/06 02:30:29;;;;;;;3.10;2.80;;;;;;;;;;5071483;28;20841;-47
2023/02/06 02:33:07;;;;;;;3.17;2.28;;;;;;;;;;5061104;28;20420;-45
2023/02/06 02:35:33;;;;;;;3.63;2.78;;;;;;;;;;5071093;28;20025;-46
2023/02/06 02:38:02;;;;;;;3.40;2.38;;;;;;;;;;5068897;28;20036;-45
2023/02/06 02:40:37;;;;;;;2.20;2.00;;;;;;;;;;5071400;28;20032;-46
2023/02/06 02:43:18;;;;;;;2.88;2.30;;;;;;;;;;5072520;28;20099;-45
2023/02/06 02:45:44;;;;;;;2.97;1.97;;;;;;;;;;5065157;28;20020;-47
2023/02/06 02:48:13;;;;;;;3.08;2.35;;;;;;;;;;5071046;28;20035;-46
2023/02/06 02:50:40;;;;;;;3.67;2.13;;;;;;;;;;5059093;28;20032;-46
2023/02/06 02:53:06;;;;;;;3.05;2.28;;;;;;;;;;5072140;28;20020;-44
2023/02/06 02:55:32;;;;;;;3.03;2.45;;;;;;;;;;5072166;28;20016;-46
2023/02/06 02:58:05;;;;;;;3.42;2.03;;;;;;;;;;5072156;28;20029;-45
2023/02/06 03:00:33;;;;;;;3.38;2.53;;;;;;;;;;5070484;28;20031;-45
2023/02/06 03:02:59;;;;;;;2.90;2.45;;;;;;;;;;5072283;28;20077;-45
2023/02/06 03:05:26;;;;;;;3.13;2.20;;;;;;;;;;5070563;28;20024;-45
2023/02/06 03:07:55;;;;;;;4.07;2.58;;;;;;;;;;5063517;28;20063;-45
2023/02/06 03:10:40;;;;;;;3.38;2.08;;;;;;;;;;5057296;28;20040;-46
2023/02/06 03:13:24;;;;;;;3.80;2.63;;;;;;;;;;5061486;28;20377;-44
2023/02/06 03:15:56;;;;;;;3.55;2.33;;;;;;;;;;5071407;28;20074;-45
2023/02/06 03:18:25;;;;;;;3.00;2.30;;;;;;;;;;5066649;28;20034;-45
2023/02/06 03:20:51;;;;;;;4.60;2.80;;;;;;;;;;5069514;28;20036;-46
2023/02/06 03:23:22;;;;;;;3.35;2.58;;;;;;;;;;5069956;28;20359;-45
2023/02/06 03:25:50;;;;;;;2.47;1.92;;;;;;;;;;5072043;28;20078;-45
2023/02/06 03:28:18;;;;;;;2.60;2.20;;;;;;;;;;5066533;28;20027;-45
2023/02/06 03:30:47;;;;;;;3.33;2.45;;;;;;;;;;5068109;28;20020;-45
2023/02/06 03:33:15;;;;;;;2.88;2.17;;;;;;;;;;5069947;28;20020;-46
2023/02/06 03:35:41;;;;;;;2.65;2.08;;;;;;;;;;5071532;28;20354;-45
2023/02/06 03:38:07;;;;;;;2.83;2.15;;;;;;;;;;5071137;28;20032;-45
2023/02/06 03:40:34;;;;;;;3.22;2.47;;;;;;;;;;5071035;28;20036;-45
2023/02/06 03:43:02;;;;;;;3.65;2.22;;;;;;;;;;5071920;28;20025;-45
2023/02/06 03:45:32;;;;;;;2.92;2.38;;;;;;;;;;5062316;28;20103;-47
2023/02/06 03:48:01;;;;;;;3.65;2.65;;;;;;;;;;5071664;28;20413;-45
2023/02/06 03:50:27;;;;;;;2.25;2.05;;;;;;;;;;5064698;28;20035;-45
2023/02/06 03:52:55;;;;;;;3.83;2.72;;;;;;;;;;5071691;28;20020;-46
2023/02/06 03:55:22;;;;;;;4.03;2.92;;;;;;;;;;5069614;28;20029;-46
2023/02/06 03:57:51;;;;;;;3.40;2.20;;;;;;;;;;5067104;28;20027;-45
2023/02/06 04:00:17;;;;;;;3.45;2.28;;;;;;;;;;5061444;28;20166;-49
2023/02/06 04:02:46;;;;;;;2.75;2.17;;;;;;;;;;5071762;28;20031;-46
2023/02/06 04:05:12;;;;;;;4.63;2.20;;;;;;;;;;5061284;28;20478;-46
2023/02/06 04:07:38;;;;;;;3.83;2.70;;;;;;;;;;5070724;28;20049;-45
2023/02/06 04:10:04;;;;;;;2.60;2.10;;;;;;;;;;5070485;28;20024;-45
2023/02/06 04:12:30;;;;;;;2.55;2.03;;;;;;;;;;5070720;28;20047;-47
2023/02/06 04:14:56;;;;;;;3.22;2.50;;;;;;;;;;5070931;28;20032;-48
2023/02/06 04:17:22;;;;;;;3.53;2.50;;;;;;;;;;5069475;28;20024;-49
2023/02/06 04:19:48;;;;;;;3.35;2.05;;;;;;;;;;5070543;28;20765;-46
2023/02/06 04:22:15;;;;;;;2.72;2.22;;;;;;;;;;5055354;28;20082;-49
2023/02/06 04:24:41;;;;;;;3.25;2.33;;;;;;;;;;5064098;28;20497;-49
2023/02/06 04:27:08;;;;;;;2.55;2.20;;;;;;;;;;5070595;28;20021;-45
2023/02/06 04:29:34;;;;;;;4.47;2.58;;;;;;;;;;5070323;28;20025;-48
2023/02/06 04:32:01;;;;;;;2.28;1.80;;;;;;;;;;5070131;28;20150;-50
2023/02/06 04:34:36;;;;;;;4.57;2.25;;;;;;;;;;5069505;28;20023;-46
2023/02/06 04:37:03;;;;;;;3.17;2.38;;;;;;;;;;5070693;28;20073;-50
2023/02/06 04:39:29;;;;;;;2.70;2.25;;;;;;;;;;5069307;28;20071;-49
2023/02/06 04:41:55;;;;;;;3.28;2.22;;;;;;;;;;5070677;28;20021;-49
2023/02/06 04:44:21;;;;;;;3.15;2.13;;;;;;;;;;5068528;28;20066;-46
2023/02/06 04:46:47;;;;;;;3.60;2.65;;;;;;;;;;5057456;28;20032;-48
2023/02/06 04:49:13;;;;;;;2.70;2.42;;;;;;;;;;5065704;28;20031;-52
2023/02/06 04:51:40;;;;;;;3.10;2.75;;;;;;;;;;5070558;28;20020;-48
2023/02/06 04:54:06;;;;;;;3.40;2.30;;;;;;;;;;5068143;28;20378;-49
2023/02/06 04:56:32;;;;;;;3.03;2.17;;;;;;;;;;5057829;28;20102;-46
2023/02/06 04:58:58;;;;;;;2.78;2.20;;;;;;;;;;5065482;28;20116;-47
2023/02/06 05:01:25;;;;;;;3.45;2.28;;;;;;;;;;5061902;28;20112;-47
2023/02/06 05:03:51;;;;;;;2.55;1.83;;;;;;;;;;5068505;28;20638;-50
2023/02/06 05:06:17;;;;;;;2.78;2.35;;;;;;;;;;5073143;28;20118;-47
2023/02/06 05:08:43;;;;;;;2.35;2.05;;;;;;;;;;5072792;28;20024;-46
2023/02/06 05:11:09;;;;;;;3.83;2.17;;;;;;;;;;5073678;28;20029;-45
2023/02/06 05:13:35;;;;;;;2.80;2.30;;;;;;;;;;5072599;28;20020;-45
2023/02/06 05:16:08;;;;;;;3.08;2.47;;;;;;;;;;5058684;28;20374;-47
2023/02/06 05:18:34;;;;;;;4.03;2.10;;;;;;;;;;5073189;28;20032;-47
2023/02/06 05:21:00;;;;;;;4.55;2.10;;;;;;;;;;5070583;28;20051;-45
2023/02/06 05:23:26;;;;;;;2.13;1.90;;;;;;;;;;5071564;28;20021;-46
2023/02/06 05:25:52;;;;;;;3.08;2.25;;;;;;;;;;5070153;28;20052;-47
2023/02/06 05:28:18;;;;;;;3.13;2.30;;;;;;;;;;5071410;28;20510;-45
2023/02/06 05:30:44;;;;;;;2.55;2.03;;;;;;;;;;5072846;28;20093;-45
2023/02/06 05:33:10;;;;;;;2.50;2.00;;;;;;;;;;5059971;28;20465;-45
2023/02/06 05:35:37;;;;;;;2.88;2.42;;;;;;;;;;5072580;28;20020;-46
2023/02/06 05:38:03;;;;;;;3.20;1.85;;;;;;;;;;5072803;28;20469;-46
2023/02/06 05:40:29;;;;;;;2.67;2.00;;;;;;;;;;5071196;28;20048;-45
2023/02/06 05:42:55;;;;;;;2.42;2.00;;;;;;;;;;5070860;28;20024;-46
2023/02/06 05:45:21;;;;;;;3.25;2.55;;;;;;;;;;5071387;28;20017;-45
2023/02/06 05:47:47;;;;;;;2.80;2.30;;;;;;;;;;5072474;28;20023;-45
2023/02/06 05:50:13;;;;;;;2.95;2.33;;;;;;;;;;5061234;28;20025;-47
2023/02/06 05:52:39;;;;;;;3.08;2.38;;;;;;;;;;5072968;28;20048;-47
2023/02/06 05:55:05;;;;;;;2.85;2.15;;;;;;;;;;5070524;28;20028;-45
2023/02/06 05:57:31;;;;;;;3.15;2.40;;;;;;;;;;5071458;28;20163;-48
2023/02/06 06:00:10;;;;;;;2.72;2.10;;;;;;;;;;5071775;28;20028;-49
2023/02/06 06:02:37;;;;;;;2.58;2.15;;;;;;;;;;5070327;28;20114;-49
2023/02/06 06:05:03;;;;;;;2.85;2.10;;;;;;;;;;5071379;28;20100;-47
2023/02/06 06:07:29;;;;;;;2.83;2.20;;;;;;;;;;5061450;28;20090;-48
2023/02/06 06:09:55;;;;;;;2.55;2.33;;;;;;;;;;5057669;28;20033;-46
2023/02/06 06:12:21;;;;;;;2.42;2.13;;;;;;;;;;5051517;28;20025;-48
2023/02/06 06:14:47;;;;;;;2.90;2.08;;;;;;;;;;5052418;28;20454;-49
2023/02/06 06:17:14;;;;;;;2.40;2.20;;;;;;;;;;5052209;28;20032;-51
2023/02/06 06:19:40;;;;;;;3.72;2.28;;;;;;;;;;5052426;28;20359;-49
2023/02/06 06:22:06;;;;;;;2.33;1.98;;;;;;;;;;5052442;28;20025;-45
2023/02/06 06:24:32;;;;;;;2.35;2.13;;;;;;;;;;5048499;28;20371;-48
2023/02/06 06:26:58;;;;;;;3.80;2.70;;;;;;;;;;5051649;28;20074;-46
2023/02/06 06:29:24;;;;;;;3.25;2.45;;;;;;;;;;5051393;28;20987;-48
2023/02/06 06:31:50;;;;;;;3.88;2.33;;;;;;;;;;5043395;28;20036;-48
2023/02/06 06:34:16;;;;;;;2.70;1.92;;;;;;;;;;5051016;28;20033;-46
2023/02/06 06:36:42;;;;;;;12.38;2.50;;;;;;;;;;5050815;28;20484;-49
2023/02/06 06:39:09;;;;;;;4.20;2.10;;;;;;;;;;5051148;28;20021;-48
2023/02/06 06:41:35;;;;;;;6.78;2.67;;;;;;;;;;5050093;28;20059;-46
2023/02/06 06:44:01;;;;;;;6.70;2.40;;;;;;;;;;5049460;28;20025;-45
2023/02/06 06:46:28;;;;;;;4.78;2.38;;;;;;;;;;5048586;28;20021;-45
2023/02/06 06:48:54;;;;;;;4.15;2.05;;;;;;;;;;5045925;28;20075;-46
2023/02/06 06:51:20;;;;;;;4.85;2.20;;;;;;;;;;5040748;28;20029;-46
2023/02/06 06:53:46;;;;;;;2.35;1.63;;;;;;;;;;5042828;28;20095;-45
2023/02/06 06:56:13;;;;;;;4.13;2.03;;;;;;;;;;5051197;28;20450;-45
2023/02/06 06:58:39;;;;;;;4.88;2.10;;;;;;;;;;5041323;28;20021;-45
2023/02/06 07:01:05;;;;;;;5.03;2.38;;;;;;;;;;5045403;28;20035;-46
2023/02/06 07:03:31;;;;;;;8.18;1.92;;;;;;;;;;5050891;28;20538;-45
2023/02/06 07:05:57;;;;;;;5.60;2.67;;;;;;;;;;5054891;28;20139;-44
2023/02/06 07:08:23;;;;;;;5.95;2.13;;;;;;;;;;5064522;28;20025;-45
2023/02/06 07:10:49;;;;;;;3.63;2.20;;;;;;;;;;5066237;28;20036;-45
2023/02/06 07:13:15;;;;;;;2.80;2.15;;;;;;;;;;5070621;28;20016;-46
2023/02/06 07:15:42;;;;;;;4.70;1.90;;;;;;;;;;5072187;28;20113;-47
2023/02/06 07:18:08;;;;;;;3.08;2.15;;;;;;;;;;5061402;28;20021;-45
2023/02/06 07:20:36;;;;;;;3.58;2.22;;;;;;;;;;5072684;28;20044;-46
2023/02/06 07:23:03;;;;;;;2.58;2.13;;;;;;;;;;5071470;28;20104;-47
2023/02/06 07:25:28;;;;;;;5.82;2.08;;;;;;;;;;5064507;28;20055;-47
2023/02/06 07:27:54;;;;;;;2.78;1.83;;;;;;;;;;5070298;28;20017;-45
2023/02/06 07:30:20;;;;;;;3.92;2.20;;;;;;;;;;5067646;28;20090;-46
2023/02/06 07:32:46;;;;;;;3.88;2.03;;;;;;;;;;5071159;28;20020;-45
2023/02/06 07:35:14;;;;;;;4.97;2.80;;;;;;;;;;5066041;28;20020;-47
2023/02/06 07:37:40;;;;;;;5.68;2.13;;;;;;;;;;5074468;28;20699;-46
2023/02/06 07:40:06;;;;;;;4.15;2.13;;;;;;;;;;5072161;28;20389;-45
2023/02/06 07:42:32;;;;;;;4.60;2.58;;;;;;;;;;5070214;28;20021;-49
2023/02/06 07:44:59;;;;;;;5.63;2.20;;;;;;;;;;5070895;28;20108;-45
2023/02/06 07:47:25;;;;;;;4.35;2.42;;;;;;;;;;5070729;28;20565;-46
2023/02/06 07:49:51;;;;;;;3.78;2.38;;;;;;;;;;5070602;28;20020;-46
2023/02/06 07:52:19;;;;;;;3.58;2.25;;;;;;;;;;5067633;28;20063;-51
2023/02/06 07:54:45;;;;;;;3.50;2.00;;;;;;;;;;5070636;28;20029;-46
2023/02/06 07:57:10;;;;;;;3.83;2.38;;;;;;;;;;5070404;28;20069;-47
2023/02/06 07:59:36;;;;;;;3.35;2.35;;;;;;;;;;5070244;28;20473;-47
2023/02/06 08:02:02;;;;;;;6.75;2.25;;;;;;;;;;5053304;28;20029;-47
2023/02/06 08:04:33;;;;;;;3.72;2.40;;;;;;;;;;5070093;28;20025;-46
2023/02/06 08:07:00;;;;;;;4.18;2.63;;;;;;;;;;5063910;28;20073;-49
2023/02/06 08:09:25;;;;;;;5.90;2.42;;;;;;;;;;5061998;28;20592;-47
2023/02/06 08:11:51;;;;;;;3.60;2.65;;;;;;;;;;5071033;28;20021;-45
2023/02/06 08:14:17;;;;;;;6.22;2.33;;;;;;;;;;5069614;28;20182;-48
2023/02/06 08:16:43;;;;;;;5.38;3.17;;;;;;;;;;5070914;28;20020;-46
2023/02/06 08:19:11;;;;;;;3.92;2.13;;;;;;;;;;5069768;28;20095;-45
2023/02/06 08:21:37;;;;;;;4.82;2.20;;;;;;;;;;5073035;28;20082;-46
2023/02/06 08:24:03;;;;;;;3.63;2.30;;;;;;;;;;5076865;28;20099;-46
2023/02/06 08:26:30;;;;;;;4.72;2.40;;;;;;;;;;5065527;28;20070;-46
2023/02/06 08:28:57;;;;;;;4.00;2.17;;;;;;;;;;5069386;28;20040;-46
2023/02/06 08:31:25;;;;;;;4.65;2.00;;;;;;;;;;5077229;28;20028;-46
2023/02/06 08:33:51;;;;;;;5.15;2.15;;;;;;;;;;5069350;28;20468;-49
2023/02/06 08:36:18;;;;;;;3.90;1.83;;;;;;;;;;5073028;28;20066;-45
2023/02/06 08:38:44;;;;;;;5.00;2.60;;;;;;;;;;5074553;28;20052;-46
2023/02/06 08:41:18;;;;;;;3.15;2.08;;;;;;;;;;5076555;28;20428;-47
2023/02/06 08:43:45;;;;;;;3.38;2.35;;;;;;;;;;5065687;28;20386;-45
2023/02/06 08:46:11;;;;;;;13.13;2.97;;;;;;;;;;5073648;28;20347;-47
2023/02/06 08:48:37;;;;;;;5.05;1.98;;;;;;;;;;5074291;28;20036;-47
2023/02/06 08:51:04;;;;;;;3.90;1.90;;;;;;;;;;5075059;28;20039;-46
2023/02/06 08:53:30;;;;;;;4.13;1.63;;;;;;;;;;5073522;28;20273;-46
2023/02/06 08:55:59;;;;;;;3.75;2.03;;;;;;;;;;5074528;28;20052;-47
2023/02/06 08:58:25;;;;;;;4.28;2.28;;;;;;;;;;5072867;28;20021;-45
2023/02/06 09:00:51;;;;;;;4.10;2.30;;;;;;;;;;5070285;28;20044;-47
2023/02/06 09:03:17;;;;;;;4.60;2.33;;;;;;;;;;5073337;28;20021;-48
2023/02/06 09:05:43;;;;;;;8.27;3.50;;;;;;;;;;5073813;28;20013;-48
2023/02/06 09:08:09;;;;;;;3.78;2.35;;;;;;;;;;5073468;28;20025;-46
2023/02/06 09:10:35;;;;;;;4.90;2.35;;;;;;;;;;5073992;28;20033;-47
2023/02/06 09:13:01;;;;;;;6.57;2.47;;;;;;;;;;5073575;28;20021;-47
2023/02/06 09:15:28;;;;;;;3.65;2.22;;;;;;;;;;5068129;28;20154;-46
2023/02/06 09:17:54;;;;;;;3.70;2.08;;;;;;;;;;5073246;28;20021;-46
2023/02/06 09:20:21;;;;;;;2.92;1.98;;;;;;;;;;5072731;28;20032;-45
2023/02/06 09:22:47;;;;;;;2.97;1.60;;;;;;;;;;5073981;28;20048;-46
2023/02/06 09:25:13;;;;;;;3.58;1.77;;;;;;;;;;5072685;28;20051;-45
2023/02/06 09:27:39;;;;;;;4.95;2.42;;;;;;;;;;5074233;28;20028;-47
2023/02/06 09:30:05;;;;;;;4.00;2.05;;;;;;;;;;5073038;28;20024;-46
2023/02/06 09:32:31;;;;;;;3.55;1.92;;;;;;;;;;5066861;28;20025;-48
2023/02/06 09:34:57;;;;;;;4.55;1.98;;;;;;;;;;5068658;28;20031;-46
2023/02/06 09:37:23;;;;;;;3.80;1.70;;;;;;;;;;5073404;28;20020;-46
2023/02/06 09:39:52;;;;;;;3.97;2.20;;;;;;;;;;5073332;28;20035;-47
2023/02/06 09:42:47;;;;;;;4.10;2.08;;;;;;;;;;5072505;28;20111;-49
2023/02/06 09:45:17;;;;;;;4.15;1.98;;;;;;;;;;5051717;28;20040;-46
2023/02/06 09:47:49;;;;;;;2.65;1.65;;;;;;;;;;5072800;28;20048;-47
2023/02/06 09:50:26;;;;;;;2.42;1.67;;;;;;;;;;5064023;28;20043;-47
2023/02/06 09:53:02;;;;;;;3.65;2.42;;;;;;;;;;5073384;28;20020;-47
2023/02/06 09:55:40;;;;;;;4.05;1.70;;;;;;;;;;5072017;28;20031;-45
2023/02/06 09:58:09;;;;;;;3.38;1.73;;;;;;;;;;5073156;28;20020;-45
2023/02/06 10:00:41;;;;;;;3.63;2.22;;;;;;;;;;5073018;28;20036;-46
2023/02/06 10:03:45;;;;;;;3.35;2.20;;;;;;;;;;5070555;28;20028;-46
2023/02/06 10:06:18;;;;;;;4.07;2.05;;;;;;;;;;4985802;28;20412;-46
2023/02/06 10:09:09;;;;;;;2.17;1.70;;;;;;;;;;4971321;28;20038;-48
2023/02/06 10:11:40;;;;;;;2.25;1.60;;;;;;;;;;4971904;28;20110;-46
2023/02/06 10:14:12;;;;;;;3.70;1.52;;;;;;;;;;4971160;28;20070;-47
2023/02/06 10:16:41;;;;;;;2.58;1.48;;;;;;;;;;4972877;28;20030;-47
2023/02/06 10:19:22;;;;;;;5.68;2.60;;;;;;;;;;4970915;28;20035;-45
2023/02/06 10:21:51;;;;;;;3.25;1.60;;;;;;;;;;4971786;28;20023;-46
2023/02/06 10:24:23;;;;;;;2.13;1.70;;;;;;;;;;4967353;28;20178;-47
2023/02/06 10:26:51;;;;;;;4.22;1.67;;;;;;;;;;4970936;28;20427;-47
2023/02/06 10:29:21;;;;;;;3.47;1.60;;;;;;;;;;4969258;28;20027;-46
2023/02/06 10:31:49;;;;;;;3.75;1.80;;;;;;;;;;4969298;28;20055;-47
2023/02/06 10:34:17;;;;;;;2.47;1.50;;;;;;;;;;4963662;28;20064;-46
2023/02/06 10:36:49;;;;;;;2.35;1.33;;;;;;;;;;4998686;28;20041;-47
2023/02/06 10:39:16;;;;;;;;;;;;;;;;;;5051074;28;20041;-46
2023/02/06 10:41:42;;;;;;;4.72;1.60;;;;;;;;;;5039251;28;20003;-48
2023/02/06 10:44:08;;;;;;;3.53;1.50;;;;;;;;;;5046074;28;20179;-46
2023/02/06 10:46:40;;;;;;;2.80;1.63;;;;;;;;;;5044987;28;20025;-47
2023/02/06 10:49:22;;;;;;;4.50;1.80;;;;;;;;;;5047693;28;20025;-45
2023/02/06 10:51:51;;;;;;;2.58;1.50;;;;;;;;;;5049389;28;20028;-46
2023/02/06 10:54:22;;;;;;;2.83;1.48;;;;;;;;;;5050896;28;20048;-49
2023/02/06 10:56:50;;;;;;;3.05;1.40;;;;;;;;;;5050106;28;20029;-47
2023/02/06 10:59:23;;;;;;;3.13;1.58;;;;;;;;;;5043245;28;20029;-49
2023/02/06 11:01:51;;;;;;;2.05;1.33;;;;;;;;;;5052124;28;20078;-47
2023/02/06 11:04:19;;;;;;;2.42;1.38;;;;;;;;;;5050786;28;20039;-52
2023/02/06 11:06:46;;;;;;;2.47;1.40;;;;;;;;;;5061331;28;20056;-50
2023/02/06 11:09:13;;;;;;;4.03;1.75;;;;;;;;;;5067648;28;20032;-47
2023/02/06 11:11:40;;;;;;;3.00;1.60;;;;;;;;;;5072220;28;20462;-47
2023/02/06 11:14:22;;;;;;;1.73;1.38;;;;;;;;;;5063028;28;20481;-48
2023/02/06 11:16:48;;;;;;;3.58;1.20;;;;;;;;;;5060327;28;20025;-47
2023/02/06 11:19:14;;;;;;;2.67;1.50;;;;;;;;;;5067192;28;20035;-48
2023/02/06 11:21:52;;;;;;;3.15;1.65;;;;;;;;;;5068576;28;20099;-47
2023/02/06 11:24:20;;;;;;;4.20;1.38;;;;;;;;;;5069250;28;20028;-48
2023/02/06 11:26:48;;;;;;;2.78;1.45;;;;;;;;;;5070928;28;20044;-50
2023/02/06 11:29:16;;;;;;;1.40;1.00;;;;;;;;;;5068341;28;20024;-48
2023/02/06 11:31:51;;;;;;;2.15;1.23;;;;;;;;;;5061092;28;20086;-48
2023/02/06 11:34:28;;;;;;;2.40;1.25;;;;;;;;;;5066822;28;20069;-46
2023/02/06 11:36:56;;;;;;;3.20;1.40;;;;;;;;;;5067455;28;20101;-49
2023/02/06 11:39:29;;;;;;;1.92;1.50;;;;;;;;;;5069595;28;20410;-47
2023/02/06 11:41:56;;;;;;;2.78;1.33;;;;;;;;;;5066573;28;20393;-46
2023/02/06 11:44:24;;;;;;;2.45;1.52;;;;;;;;;;5069525;28;20020;-46
2023/02/06 11:46:50;;;;;;;3.42;1.67;;;;;;;;;;5061372;28;20051;-47
2023/02/06 11:49:19;;;;;;;2.42;1.38;;;;;;;;;;5066478;28;20029;-47
2023/02/06 11:51:47;;;;;;;2.28;1.65;;;;;;;;;;5057973;28;20027;-47
2023/02/06 11:54:27;;;;;;;2.78;1.45;;;;;;;;;;5069524;28;20017;-49
2023/02/06 11:57:02;;;;;;;3.35;1.90;;;;;;;;;;5048375;28;20035;-47
2023/02/06 11:59:28;;;;;;;3.25;1.55;;;;;;;;;;5069291;28;20183;-47
2023/02/06 12:01:56;;;;;;;3.78;1.95;;;;;;;;;;5069892;28;20078;-47
2023/02/06 12:04:33;;;;;;;3.65;1.70;;;;;;;;;;5068052;28;20028;-48
2023/02/06 12:07:13;;;;;;;3.70;2.75;;;;;;;;;;5060298;28;20044;-48
2023/02/06 12:09:39;;;;;;;3.03;1.73;;;;;;;;;;5063864;28;20090;-48
2023/02/06 12:12:05;;;;;;;3.13;1.60;;;;;;;;;;5070037;28;20028;-46
2023/02/06 12:14:39;;;;;;;4.28;2.05;;;;;;;;;;5061248;28;20032;-48
2023/02/06 12:17:14;;;;;;;4.53;1.92;;;;;;;;;;5062340;28;20031;-47
2023/02/06 12:19:46;;;;;;;2.75;1.80;;;;;;;;;;5063250;28;20028;-49
2023/02/06 12:22:15;;;;;;;3.08;1.50;;;;;;;;;;5067351;28;20096;-47
2023/02/06 12:24:46;;;;;;;3.97;1.48;;;;;;;;;;5058838;28;20100;-47
2023/02/06 12:27:15;;;;;;;3.72;2.13;;;;;;;;;;5062692;28;20566;-49
2023/02/06 12:29:43;;;;;;;2.58;1.60;;;;;;;;;;5069608;28;20120;-48
2023/02/06 12:32:13;;;;;;;2.67;1.38;;;;;;;;;;5061765;28;20082;-48
2023/02/06 12:34:49;;;;;;;1.90;1.23;;;;;;;;;;5038502;28;20489;-49
2023/02/06 12:37:20;;;;;;;3.33;1.90;;;;;;;;;;5062132;28;20576;-47
2023/02/06 12:39:47;;;;;;;2.50;1.50;;;;;;;;;;5060039;28;20065;-50
2023/02/06 12:42:21;;;;;;;2.17;1.80;;;;;;;;;;5064238;28;20041;-51
2023/02/06 12:44:58;;;;;;;2.17;1.65;;;;;;;;;;5061012;28;20382;-48
2023/02/06 12:47:29;;;;;;;3.60;1.50;;;;;;;;;;5056874;28;20104;-47
2023/02/06 12:50:15;;;;;;;2.28;1.40;;;;;;;;;;5066114;28;20024;-47
2023/02/06 12:52:41;;;;;;;2.15;1.45;;;;;;;;;;5064542;28;20025;-49
2023/02/06 12:55:15;;;;;;;2.42;1.60;;;;;;;;;;5059929;28;20384;-46
2023/02/06 12:57:41;;;;;;;2.03;1.55;;;;;;;;;;5064575;28;20093;-47
2023/02/06 13:00:22;;;;;;;2.10;1.13;;;;;;;;;;5049578;28;20040;-47
2023/02/06 13:03:04;;;;;;;2.03;1.50;;;;;;;;;;5074208;28;20036;-49
2023/02/06 13:05:38;;;;;;;1.95;1.27;;;;;;;;;;5071374;28;20032;-47
2023/02/06 13:08:09;;;;;;;2.90;1.33;;;;;;;;;;5050550;28;20385;-51
2023/02/06 13:10:35;;;;;;;2.03;1.30;;;;;;;;;;5040882;28;20037;-48
2023/02/06 13:13:01;;;;;;;2.78;2.00;;;;;;;;;;5050556;28;20032;-49
2023/02/06 13:15:31;;;;;;;2.05;1.20;;;;;;;;;;5048250;28;20013;-47
2023/02/06 13:17:57;;;;;;;2.72;1.27;;;;;;;;;;5050307;28;20078;-48
2023/02/06 13:20:23;;;;;;;1.67;1.10;;;;;;;;;;5042695;28;20084;-49
2023/02/06 13:22:51;;;;;;;1.65;1.17;;;;;;;;;;5047354;28;20045;-47
2023/02/06 13:25:29;;;;;;;2.53;1.67;;;;;;;;;;5048848;28;20370;-47
2023/02/06 13:28:21;;;;;;;1.48;1.02;;;;;;;;;;5045578;28;20024;-50
2023/02/06 13:31:06;;;;;;;1.90;1.10;;;;;;;;;;5014229;28;20041;-48
2023/02/06 13:33:40;;;;;;;1.58;1.02;;;;;;;;;;5040818;28;20090;-48
2023/02/06 13:36:16;;;;;;;2.42;1.20;;;;;;;;;;5052704;28;20052;-47
2023/02/06 13:38:42;;;;;;;1.80;1.05;;;;;;;;;;5052461;28;20025;-47
2023/02/06 13:41:14;;;;;;;1.02;0.80;;;;;;;;;;5052446;28;20028;-47
2023/02/06 13:43:41;;;;;;;2.47;1.58;;;;;;;;;;5048061;28;20033;-49
2023/02/06 13:46:14;;;;;;;3.17;1.10;;;;;;;;;;5052904;28;20454;-48
2023/02/06 13:48:59;;;;;;;1.67;1.20;;;;;;;;;;5043281;28;20022;-47
2023/02/06 13:51:47;;;;;;;2.28;1.10;;;;;;;;;;5051614;28;20492;-49
2023/02/06 13:54:13;;;;;;;1.35;1.08;;;;;;;;;;5045104;28;20029;-48
2023/02/06 13:56:57;;;;;;;3.17;1.13;;;;;;;;;;5041010;28;20494;-49
2023/02/06 13:59:26;;;;;;;1.75;1.13;;;;;;;;;;5049816;28;20028;-47
2023/02/06 14:01:53;;;;;;;2.65;1.30;;;;;;;;;;5048070;28;20162;-48
2023/02/06 14:04:22;;;;;;;2.10;0.95;;;;;;;;;;5049711;28;20040;-49
2023/02/06 14:06:57;;;;;;;1.13;1.00;;;;;;;;;;5058324;28;20041;-48
2023/02/06 14:12:38;;;;;;;2.10;0.95;;;;;;;;;;5065870;28;20109;-48
2023/02/06 14:15:36;;;;;;;1.38;0.93;;;;;;;;;;5058646;28;20027;-48
2023/02/06 14:18:20;;;;;;;1.52;0.70;;;;;;;;;;5019303;28;20043;-47
2023/02/06 14:20:55;;;;;;;2.58;0.82;;;;;;;;;;5069416;28;20067;-49
2023/02/06 14:23:27;;;;;;;2.38;1.13;;;;;;;;;;5069356;28;20025;-49
2023/02/06 14:25:53;;;;;;;;;;;;;;;;;;5056800;28;20025;-48
2023/02/06 14:28:19;;;;;;;1.63;1.10;;;;;;;;;;5069740;28;19908;-50
2023/02/06 14:30:58;;;;;;;1.95;0.98;;;;;;;;;;5070861;28;20024;-47
2023/02/06 14:33:36;;;;;;;2.45;1.10;;;;;;;;;;5060611;28;20021;-48
2023/02/06 14:36:09;;;;;;;1.15;0.98;;;;;;;;;;5069783;28;20096;-47
2023/02/06 14:38:57;;;;;;;1.05;0.90;;;;;;;;;;5070447;28;20166;-48
2023/02/06 14:41:27;;;;;;;1.70;0.88;;;;;;;;;;5060678;28;20024;-46
2023/02/06 14:43:53;;;;;;;1.50;0.90;;;;;;;;;;5068640;28;20063;-50
2023/02/06 14:46:19;;;;;;;1.35;0.90;;;;;;;;;;5055473;28;20028;-47
2023/02/06 14:48:47;;;;;;;2.15;0.85;;;;;;;;;;5065515;28;20036;-49
2023/02/06 14:51:33;;;;;;;1.45;0.90;;;;;;;;;;5047019;28;20484;-48
2023/02/06 14:54:00;;;;;;;1.77;1.08;;;;;;;;;;5068644;28;20075;-48
2023/02/06 14:56:28;;;;;;;2.53;1.10;;;;;;;;;;5059664;28;20612;-47